Time;durP1;ratioP1;P1;durP2;ratioP2;P2;SDS_P1;SDS_P2;PMS_P1;PMS_P2;Temp;Humidity;BMP_temperature;BMP_pressure;BME280_temperature;BME280_humidity;BME280_pressure;Samples;Min_cycle;Max_cycle;Signal;HPM_P1;HPM_P2
2022/11/07 00:01:41;;;;;;;5.30;3.23;;;8.00;99.90;;;;;;5049245;28;20239;-78
2022/11/07 00:04:08;;;;;;;4.20;3.23;;;8.00;99.90;;;;;;5030618;28;20252;-78
2022/11/07 00:06:36;;;;;;;3.93;3.30;;;8.10;99.90;;;;;;5028912;28;20231;-78
2022/11/07 00:09:05;;;;;;;3.50;2.90;;;8.10;99.90;;;;;;5032068;28;20690;-79
2022/11/07 00:11:32;;;;;;;5.07;2.87;;;8.10;99.90;;;;;;5048094;28;20764;-79
2022/11/07 00:14:00;;;;;;;3.90;2.70;;;8.10;99.90;;;;;;5042969;28;20223;-78
2022/11/07 00:16:28;;;;;;;4.97;3.33;;;8.10;99.90;;;;;;5045912;28;20237;-78
2022/11/07 00:18:55;;;;;;;3.77;3.23;;;8.10;99.90;;;;;;5042092;28;20269;-78
2022/11/07 00:21:21;;;;;;;3.23;2.87;;;8.10;99.90;;;;;;5042101;28;20225;-79
2022/11/07 00:23:48;;;;;;;4.23;3.10;;;8.10;99.90;;;;;;5027214;28;21219;-77
2022/11/07 00:26:15;;;;;;;3.43;2.87;;;8.10;99.90;;;;;;5021718;28;20235;-77
2022/11/07 00:28:43;;;;;;;3.73;3.00;;;8.20;99.90;;;;;;5039139;28;20272;-79
2022/11/07 00:31:13;;;;;;;4.03;3.00;;;8.20;99.90;;;;;;5042372;28;20328;-79
2022/11/07 00:33:40;;;;;;;4.10;3.20;;;8.20;99.90;;;;;;5041968;28;20221;-79
2022/11/07 00:36:08;;;;;;;3.33;3.03;;;8.20;99.90;;;;;;5022564;28;20599;-79
2022/11/07 00:38:35;;;;;;;3.77;3.00;;;8.30;99.90;;;;;;5030194;28;20262;-79
2022/11/07 00:41:03;;;;;;;3.07;2.73;;;8.30;99.90;;;;;;5044228;28;20786;-79
2022/11/07 00:43:31;;;;;;;5.40;2.80;;;8.40;99.90;;;;;;5046746;28;20222;-79
2022/11/07 00:46:01;;;;;;;4.00;3.10;;;8.40;99.90;;;;;;5039633;28;20238;-79
2022/11/07 00:48:29;;;;;;;3.40;2.83;;;8.40;99.90;;;;;;5029207;28;20236;-79
2022/11/07 00:50:56;;;;;;;3.30;2.93;;;8.40;99.90;;;;;;5040131;28;20258;-79
2022/11/07 00:53:23;;;;;;;3.73;3.20;;;8.40;99.90;;;;;;5021809;28;20225;-78
2022/11/07 00:55:50;;;;;;;3.93;3.00;;;8.50;99.90;;;;;;5023004;28;20227;-78
2022/11/07 00:58:17;;;;;;;3.50;2.67;;;8.50;99.90;;;;;;5033632;28;20771;-79
2022/11/07 01:00:43;;;;;;;4.17;3.47;;;8.50;99.90;;;;;;5038802;28;20227;-78
2022/11/07 01:06:00;;;;;;;3.30;2.60;;;8.50;99.90;;;;;;5028898;28;20227;-80
2022/11/07 01:08:27;;;;;;;4.17;3.00;;;8.50;99.90;;;;;;5025561;28;20283;-78
2022/11/07 01:10:55;;;;;;;4.87;3.00;;;8.60;99.90;;;;;;5026614;28;20578;-79
2022/11/07 01:13:22;;;;;;;4.90;2.70;;;8.60;99.90;;;;;;5030990;28;20224;-78
2022/11/07 01:15:49;;;;;;;4.07;2.70;;;8.60;99.90;;;;;;5026621;28;20402;-78
2022/11/07 01:18:16;;;;;;;5.07;3.13;;;8.60;99.90;;;;;;5043071;28;20752;-78
2022/11/07 01:20:43;;;;;;;4.20;2.83;;;8.60;99.90;;;;;;5015868;28;20308;-79
2022/11/07 01:23:11;;;;;;;3.20;2.50;;;8.70;99.90;;;;;;5039381;28;20357;-79
2022/11/07 01:25:38;;;;;;;4.23;2.77;;;8.70;99.90;;;;;;5028788;28;20239;-79
2022/11/07 01:28:06;;;;;;;2.77;2.27;;;8.70;99.90;;;;;;5040328;28;20204;-79
2022/11/07 01:30:33;;;;;;;4.77;2.67;;;8.80;99.90;;;;;;5023262;28;20218;-80
2022/11/07 01:33:00;;;;;;;3.80;2.73;;;8.70;99.90;;;;;;5022307;28;20346;-80
2022/11/07 01:35:27;;;;;;;3.90;2.57;;;8.80;99.90;;;;;;5041182;28;20363;-79
2022/11/07 01:37:53;;;;;;;4.17;2.70;;;8.80;99.90;;;;;;5021995;28;20234;-79
2022/11/07 01:40:22;;;;;;;3.53;2.77;;;8.80;99.90;;;;;;5029795;28;20231;-79
2022/11/07 01:42:48;;;;;;;2.90;2.50;;;8.90;99.90;;;;;;5026155;28;20246;-78
2022/11/07 01:45:21;;;;;;;3.50;2.87;;;8.90;99.90;;;;;;5037785;28;20317;-78
2022/11/07 01:47:49;;;;;;;2.90;2.60;;;8.90;99.90;;;;;;5041261;28;20331;-78
2022/11/07 01:50:16;;;;;;;4.37;2.67;;;8.90;99.90;;;;;;5020429;28;20608;-78
2022/11/07 01:52:46;;;;;;;4.23;2.43;;;9.00;99.90;;;;;;5024918;28;20769;-77
2022/11/07 01:55:17;;;;;;;3.87;2.43;;;9.00;99.90;;;;;;5020469;28;20232;-78
2022/11/07 01:57:50;;;;;;;4.93;2.70;;;9.00;99.90;;;;;;5017058;28;20602;-78
2022/11/07 02:00:20;;;;;;;4.00;2.50;;;9.00;99.90;;;;;;5035986;28;20218;-78
2022/11/07 02:02:51;;;;;;;3.83;2.60;;;9.00;99.90;;;;;;5040484;28;20337;-78
2022/11/07 02:05:24;;;;;;;6.37;2.63;;;9.10;99.90;;;;;;5038564;28;21143;-78
2022/11/07 02:07:51;;;;;;;6.47;2.80;;;9.00;99.90;;;;;;5020045;28;20219;-77
2022/11/07 02:10:19;;;;;;;2.93;2.23;;;9.10;99.90;;;;;;5024751;28;20372;-77
2022/11/07 02:12:47;;;;;;;4.60;2.67;;;9.00;99.90;;;;;;5027629;28;20235;-77
2022/11/07 02:15:14;;;;;;;4.10;2.80;;;9.10;99.90;;;;;;5025463;28;20316;-78
2022/11/07 02:17:41;;;;;;;4.17;2.43;;;9.00;99.90;;;;;;5027435;28;20239;-78
2022/11/07 02:20:08;;;;;;;4.37;2.43;;;9.00;99.90;;;;;;5042586;28;20252;-78
2022/11/07 02:22:40;;;;;;;3.97;2.60;;;9.10;99.90;;;;;;5040152;28;20250;-78
2022/11/07 02:25:11;;;;;;;4.13;2.33;;;9.00;99.90;;;;;;5045235;28;20753;-77
2022/11/07 02:27:40;;;;;;;5.63;3.00;;;9.00;99.90;;;;;;5033818;28;20737;-80
2022/11/07 02:30:10;;;;;;;4.33;2.37;;;9.00;99.90;;;;;;5046090;28;20623;-79
2022/11/07 02:32:37;;;;;;;5.03;2.53;;;9.00;99.90;;;;;;5031351;28;20226;-79
2022/11/07 02:35:06;;;;;;;3.57;2.50;;;9.00;99.90;;;;;;5047611;28;20226;-79
2022/11/07 02:37:37;;;;;;;3.10;2.50;;;9.00;99.90;;;;;;5047969;28;20233;-79
2022/11/07 02:40:06;;;;;;;2.93;2.40;;;9.00;99.90;;;;;;5049613;28;20224;-79
2022/11/07 02:42:43;;;;;;;3.90;2.20;;;9.00;99.90;;;;;;5030913;28;20231;-79
2022/11/07 02:45:12;;;;;;;5.67;2.70;;;9.10;99.90;;;;;;5047129;28;20242;-79
2022/11/07 02:47:38;;;;;;;6.77;2.50;;;9.10;99.90;;;;;;5051704;28;20231;-78
2022/11/07 02:50:07;;;;;;;3.50;2.43;;;9.10;99.90;;;;;;5043999;28;20242;-78
2022/11/07 02:52:34;;;;;;;3.83;2.53;;;9.10;99.90;;;;;;5040130;28;20228;-78
2022/11/07 02:55:01;;;;;;;5.27;2.90;;;9.20;99.90;;;;;;5042323;28;20369;-79
2022/11/07 02:57:27;;;;;;;3.80;2.50;;;9.20;99.90;;;;;;5046133;28;20235;-79
2022/11/07 02:59:56;;;;;;;5.47;2.83;;;9.30;99.90;;;;;;5032538;28;20926;-79
2022/11/07 03:02:23;;;;;;;3.43;2.20;;;9.30;99.90;;;;;;5025499;28;20226;-78
2022/11/07 03:04:50;;;;;;;5.33;2.40;;;9.40;99.90;;;;;;5044325;28;20785;-78
2022/11/07 03:07:16;;;;;;;3.50;2.30;;;9.30;99.90;;;;;;5037832;28;20224;-78
2022/11/07 03:09:43;;;;;;;3.97;2.20;;;9.40;99.90;;;;;;5043387;28;20777;-78
2022/11/07 03:12:10;;;;;;;4.67;2.40;;;9.40;99.90;;;;;;5047524;28;20250;-79
2022/11/07 03:14:37;;;;;;;4.67;2.33;;;9.50;99.90;;;;;;5040155;28;20230;-79
2022/11/07 03:17:05;;;;;;;3.67;2.30;;;9.50;99.90;;;;;;5024016;28;20626;-78
2022/11/07 03:19:31;;;;;;;6.73;2.50;;;9.50;99.90;;;;;;5026147;28;20235;-78
2022/11/07 03:21:58;;;;;;;5.50;2.43;;;9.50;99.90;;;;;;5023183;28;20224;-79
2022/11/07 03:24:25;;;;;;;3.83;2.43;;;9.50;99.90;;;;;;5021728;28;20253;-79
2022/11/07 03:26:52;;;;;;;7.27;2.33;;;9.60;99.90;;;;;;5025205;28;20231;-79
2022/11/07 03:29:19;;;;;;;3.63;2.43;;;9.60;99.90;;;;;;5024431;28;20688;-79
2022/11/07 03:31:46;;;;;;;4.03;2.47;;;9.60;99.90;;;;;;5042483;28;20276;-79
2022/11/07 03:34:14;;;;;;;4.93;2.43;;;9.70;99.90;;;;;;5029928;28;20226;-78
2022/11/07 03:36:40;;;;;;;5.27;2.50;;;9.60;99.90;;;;;;5041979;28;20230;-80
2022/11/07 03:39:07;;;;;;;3.07;2.00;;;9.70;99.90;;;;;;5046457;28;20352;-79
2022/11/07 03:41:34;;;;;;;3.00;2.20;;;9.70;99.90;;;;;;5031217;28;20238;-80
2022/11/07 03:44:01;;;;;;;3.47;2.30;;;9.70;99.90;;;;;;5025329;28;20226;-79
2022/11/07 03:46:27;;;;;;;3.53;2.33;;;9.70;99.90;;;;;;5028631;28;20327;-79
2022/11/07 03:48:54;;;;;;;5.17;2.07;;;9.70;99.90;;;;;;5025993;28;20220;-79
2022/11/07 03:51:22;;;;;;;5.93;2.67;;;9.80;99.90;;;;;;5028330;28;20219;-79
2022/11/07 03:53:49;;;;;;;5.20;2.60;;;9.80;99.90;;;;;;5043046;28;20219;-79
2022/11/07 03:56:15;;;;;;;5.90;2.47;;;9.80;99.90;;;;;;5041344;28;20234;-79
2022/11/07 03:58:42;;;;;;;5.03;2.43;;;9.80;99.90;;;;;;5042416;28;20535;-80
2022/11/07 04:01:10;;;;;;;4.53;2.10;;;9.80;99.90;;;;;;5043366;28;20230;-79
2022/11/07 04:03:37;;;;;;;5.80;2.30;;;9.80;99.90;;;;;;5037045;28;20880;-79
2022/11/07 04:06:04;;;;;;;3.63;2.17;;;9.90;99.90;;;;;;5045534;28;20264;-80
2022/11/07 04:08:32;;;;;;;5.87;2.33;;;9.90;99.90;;;;;;5022592;28;20226;-80
2022/11/07 04:10:59;;;;;;;7.33;2.90;;;9.90;99.90;;;;;;5026948;28;21018;-80
2022/11/07 04:18:55;;;;;;;4.23;2.30;;;10.00;99.90;;;;;;5037161;28;20214;-81
2022/11/07 04:21:22;;;;;;;3.57;2.30;;;10.00;99.90;;;;;;5038410;28;20215;-79
2022/11/07 04:23:50;;;;;;;5.53;2.43;;;10.00;99.90;;;;;;5038577;28;20934;-80
2022/11/07 04:29:01;;;;;;;3.23;2.10;;;10.00;99.90;;;;;;5043555;28;20215;-80
2022/11/07 04:31:28;;;;;;;5.93;2.47;;;10.10;99.90;;;;;;5023186;28;20230;-79
2022/11/07 04:33:54;;;;;;;4.63;2.30;;;10.10;99.90;;;;;;5017549;28;20225;-78
2022/11/07 04:36:21;;;;;;;5.40;2.30;;;10.10;99.90;;;;;;5017596;28;20225;-79
2022/11/07 04:38:49;;;;;;;6.23;2.43;;;10.00;99.90;;;;;;5041603;28;20356;-80
2022/11/07 04:41:20;;;;;;;5.93;2.37;;;10.10;99.90;;;;;;5045199;28;20227;-80
2022/11/07 04:43:47;;;;;;;8.47;2.70;;;10.10;99.90;;;;;;5028822;28;20226;-79
2022/11/07 04:46:15;;;;;;;6.90;2.50;;;10.10;99.90;;;;;;5042852;28;20233;-79
2022/11/07 04:48:41;;;;;;;6.87;2.40;;;10.10;99.90;;;;;;5047265;28;20230;-80
2022/11/07 04:51:14;;;;;;;5.43;2.60;;;10.10;99.90;;;;;;5040478;28;20220;-80
2022/11/07 04:53:40;;;;;;;4.30;2.30;;;10.10;99.90;;;;;;5020036;28;20236;-80
2022/11/07 04:56:08;;;;;;;4.93;2.40;;;10.10;99.90;;;;;;5023561;28;20230;-79
2022/11/07 04:58:35;;;;;;;8.20;2.77;;;10.10;99.90;;;;;;5020736;28;20236;-80
2022/11/07 05:01:02;;;;;;;7.17;3.17;;;10.10;99.90;;;;;;5033713;28;23103;-79
2022/11/07 05:03:29;;;;;;;5.50;2.30;;;10.10;99.90;;;;;;5034456;28;20331;-79
2022/11/07 05:05:55;;;;;;;5.70;2.63;;;10.10;99.90;;;;;;5040493;28;21016;-79
2022/11/07 05:08:22;;;;;;;3.87;2.33;;;10.10;99.90;;;;;;5040436;28;20975;-81
2022/11/07 05:10:49;;;;;;;5.13;2.57;;;10.10;99.90;;;;;;5024942;28;20268;-79
2022/11/07 05:13:17;;;;;;;6.90;2.60;;;10.10;99.90;;;;;;5029903;28;20253;-79
2022/11/07 05:15:44;;;;;;;4.43;2.53;;;10.10;99.90;;;;;;5043471;28;20233;-79
2022/11/07 05:18:11;;;;;;;6.97;2.43;;;10.10;99.90;;;;;;5044927;28;20257;-79
2022/11/07 05:20:39;;;;;;;7.77;2.63;;;10.10;99.90;;;;;;5043085;28;20223;-78
2022/11/07 05:23:13;;;;;;;4.57;2.37;;;10.10;99.90;;;;;;5044635;28;20222;-79
2022/11/07 05:25:41;;;;;;;6.50;2.37;;;10.10;99.90;;;;;;5031137;28;20216;-80
2022/11/07 05:28:09;;;;;;;5.00;2.63;;;10.10;99.90;;;;;;5022590;28;20246;-78
2022/11/07 05:30:40;;;;;;;4.40;2.60;;;10.10;99.90;;;;;;5041048;28;20250;-78
2022/11/07 05:33:07;;;;;;;4.53;2.50;;;10.10;99.90;;;;;;5037408;28;20234;-79
2022/11/07 05:35:34;;;;;;;4.57;2.40;;;10.20;99.90;;;;;;5028281;28;20235;-78
2022/11/07 05:38:01;;;;;;;7.80;2.47;;;10.20;99.90;;;;;;5038619;28;20224;-78
2022/11/07 05:40:27;;;;;;;7.47;2.80;;;10.20;99.90;;;;;;5027103;28;20242;-78
2022/11/07 05:42:59;;;;;;;4.73;2.67;;;10.20;99.90;;;;;;5039879;28;20298;-78
2022/11/07 05:45:25;;;;;;;9.30;2.73;;;10.20;99.90;;;;;;5029804;28;20238;-78
2022/11/07 05:47:58;;;;;;;6.17;3.47;;;10.20;99.90;;;;;;5047173;28;20590;-78
2022/11/07 05:50:25;;;;;;;7.07;2.70;;;10.20;99.90;;;;;;5026149;28;20233;-79
2022/11/07 05:52:52;;;;;;;5.93;2.80;;;10.20;99.90;;;;;;5038119;28;20647;-78
2022/11/07 05:55:19;;;;;;;5.63;2.47;;;10.10;99.90;;;;;;5033119;28;20231;-79
2022/11/07 05:57:46;;;;;;;5.27;2.73;;;10.00;99.90;;;;;;5035135;28;20316;-78
2022/11/07 06:00:14;;;;;;;7.43;3.00;;;10.00;99.90;;;;;;5021758;28;20227;-82
2022/11/07 06:02:41;;;;;;;6.73;2.77;;;9.90;99.90;;;;;;5036697;28;20749;-80
2022/11/07 06:05:09;;;;;;;5.43;2.50;;;9.90;99.90;;;;;;5020893;28;20308;-80
2022/11/07 06:07:40;;;;;;;5.60;2.67;;;9.80;99.90;;;;;;5016300;28;20226;-80
2022/11/07 06:10:08;;;;;;;6.67;2.67;;;9.70;99.90;;;;;;5034480;28;21965;-80
2022/11/07 06:12:35;;;;;;;8.60;2.80;;;9.70;99.90;;;;;;5029394;28;20235;-80
2022/11/07 06:15:05;;;;;;;7.30;3.00;;;9.60;99.90;;;;;;5026829;28;20239;-81
2022/11/07 06:17:32;;;;;;;9.17;2.80;;;9.60;99.90;;;;;;5036272;28;20233;-80
2022/11/07 06:19:58;;;;;;;5.40;2.80;;;9.50;99.90;;;;;;5018050;28;20226;-80
2022/11/07 06:22:26;;;;;;;7.87;3.80;;;9.50;99.90;;;;;;5033839;28;21947;-80
2022/11/07 06:24:53;;;;;;;7.37;2.73;;;9.50;99.90;;;;;;5019779;28;20228;-80
2022/11/07 06:27:20;;;;;;;7.67;2.80;;;9.50;99.90;;;;;;5037612;28;20231;-80
2022/11/07 06:29:46;;;;;;;7.50;2.90;;;9.60;99.90;;;;;;5039235;28;20302;-80
2022/11/07 06:32:13;;;;;;;6.43;2.97;;;9.60;99.90;;;;;;5040896;28;20232;-80
2022/11/07 06:34:40;;;;;;;6.37;2.53;;;9.60;99.90;;;;;;5032153;28;20593;-80
2022/11/07 06:37:07;;;;;;;6.00;2.73;;;9.60;99.90;;;;;;5038078;28;20562;-79
2022/11/07 06:39:35;;;;;;;8.00;3.00;;;9.60;99.90;;;;;;5042256;28;20241;-80
2022/11/07 06:42:01;;;;;;;6.80;3.37;;;9.60;99.90;;;;;;5014890;28;20642;-80
2022/11/07 06:44:28;;;;;;;7.40;3.20;;;9.60;99.90;;;;;;5017523;28;20226;-80
2022/11/07 06:46:55;;;;;;;6.53;2.53;;;9.60;99.90;;;;;;5030212;28;20305;-80
2022/11/07 06:49:21;;;;;;;7.70;2.90;;;9.60;99.90;;;;;;5024027;28;20226;-80
2022/11/07 06:51:48;;;;;;;7.93;3.33;;;9.50;99.90;;;;;;5020620;28;20225;-80
2022/11/07 06:54:15;;;;;;;5.87;2.73;;;9.50;99.90;;;;;;5036597;28;20538;-80
2022/11/07 06:56:43;;;;;;;5.83;3.00;;;9.50;99.90;;;;;;5034739;28;20229;-81
2022/11/07 06:59:10;;;;;;;7.23;2.57;;;9.50;99.90;;;;;;5036127;28;20230;-80
2022/11/07 07:01:36;;;;;;;4.83;2.43;;;9.50;99.90;;;;;;5039572;28;20322;-80
2022/11/07 07:04:04;;;;;;;5.33;2.67;;;9.40;99.90;;;;;;5038010;28;20657;-80
2022/11/07 07:06:31;;;;;;;8.43;3.00;;;9.40;99.90;;;;;;5034651;28;20231;-80
2022/11/07 07:08:58;;;;;;;5.90;2.67;;;9.40;99.90;;;;;;5025967;28;20298;-81
2022/11/07 07:11:24;;;;;;;5.53;2.53;;;9.40;99.90;;;;;;5025344;28;20226;-80
2022/11/07 07:13:52;;;;;;;4.03;2.37;;;9.40;99.90;;;;;;5045127;28;20316;-81
2022/11/07 07:16:19;;;;;;;6.73;3.00;;;9.50;99.90;;;;;;5026479;28;20651;-80
2022/11/07 07:18:46;;;;;;;6.13;2.80;;;9.50;99.90;;;;;;5045715;28;20246;-81
2022/11/07 07:21:14;;;;;;;6.50;3.00;;;9.60;99.90;;;;;;5042666;28;20703;-80
2022/11/07 07:23:41;;;;;;;5.70;2.90;;;9.60;99.90;;;;;;5043814;28;20230;-81
2022/11/07 07:26:11;;;;;;;8.53;3.47;;;9.60;99.90;;;;;;5026241;28;20312;-82
2022/11/07 07:28:38;;;;;;;7.10;3.03;;;9.70;99.90;;;;;;5047146;28;20309;-79
2022/11/07 07:31:18;;;;;;;3.37;2.47;;;9.80;99.90;;;;;;5030028;28;20233;-79
2022/11/07 07:33:46;;;;;;;5.63;2.67;;;9.80;99.90;;;;;;5028722;28;20758;-80
2022/11/07 07:36:14;;;;;;;5.93;2.57;;;9.80;99.90;;;;;;5041966;28;20225;-79
2022/11/07 07:38:41;;;;;;;5.83;2.70;;;9.90;99.90;;;;;;5031475;28;20233;-80
2022/11/07 07:41:08;;;;;;;7.83;2.60;;;10.00;99.90;;;;;;5045192;28;20235;-79
2022/11/07 07:43:38;;;;;;;7.00;2.97;;;10.10;99.90;;;;;;5030607;28;20239;-80
2022/11/07 07:46:07;;;;;;;9.10;2.73;;;10.10;99.90;;;;;;5031409;28;20239;-79
2022/11/07 07:48:35;;;;;;;5.93;2.53;;;10.20;99.90;;;;;;5047714;28;20249;-81
2022/11/07 07:51:02;;;;;;;6.73;2.60;;;10.30;99.90;;;;;;5020280;28;20877;-79
2022/11/07 07:53:28;;;;;;;7.47;2.83;;;10.30;99.90;;;;;;5040556;28;20233;-80
2022/11/07 07:55:56;;;;;;;6.97;3.00;;;10.40;99.90;;;;;;5026991;28;20239;-81
2022/11/07 07:58:23;;;;;;;6.10;2.37;;;10.40;99.90;;;;;;5036624;28;20234;-80
2022/11/07 08:00:52;;;;;;;9.03;3.07;;;10.50;99.90;;;;;;5026766;28;20231;-81
2022/11/07 08:03:18;;;;;;;5.83;2.23;;;10.60;99.90;;;;;;5044564;28;20273;-79
2022/11/07 08:05:53;;;;;;;8.50;2.97;;;10.70;99.90;;;;;;5027691;28;20232;-80
2022/11/07 08:08:19;;;;;;;9.33;2.73;;;10.80;99.90;;;;;;5044852;28;20433;-80
2022/11/07 08:10:52;;;;;;;8.47;2.43;;;10.90;99.90;;;;;;5037679;28;20235;-79
2022/11/07 08:13:21;;;;;;;4.63;2.70;;;11.10;99.90;;;;;;5026051;28;20282;-81
2022/11/07 08:15:48;;;;;;;7.07;3.00;;;11.20;99.90;;;;;;5014395;28;20256;-80
2022/11/07 08:18:18;;;;;;;9.57;2.90;;;11.20;99.90;;;;;;5023582;28;20678;-79
2022/11/07 08:20:48;;;;;;;7.53;2.70;;;11.20;99.90;;;;;;5023038;28;20419;-80
2022/11/07 08:23:15;;;;;;;6.60;2.83;;;11.30;99.90;;;;;;5036453;28;20778;-81
2022/11/07 08:25:42;;;;;;;9.90;3.00;;;11.30;99.90;;;;;;5020632;28;20228;-79
2022/11/07 08:28:09;;;;;;;9.47;3.00;;;11.30;99.90;;;;;;5027152;28;20231;-81
2022/11/07 08:30:39;;;;;;;5.30;2.70;;;11.30;99.90;;;;;;5027453;28;20228;-81
2022/11/07 08:33:05;;;;;;;9.80;3.03;;;11.40;99.90;;;;;;5014543;28;20993;-81
2022/11/07 08:35:32;;;;;;;6.83;2.60;;;11.30;99.90;;;;;;5038757;28;20236;-79
2022/11/07 08:38:00;;;;;;;12.00;2.53;;;11.50;99.90;;;;;;5021199;28;20605;-80
2022/11/07 08:40:27;;;;;;;5.63;2.60;;;11.60;99.90;;;;;;5040215;28;20232;-81
2022/11/07 08:42:59;;;;;;;8.73;2.67;;;11.70;99.90;;;;;;5038784;28;20224;-81
2022/11/07 08:45:26;;;;;;;7.67;2.20;;;11.70;99.90;;;;;;5036932;28;20978;-80
2022/11/07 08:47:57;;;;;;;8.27;2.57;;;11.70;99.90;;;;;;5018385;28;20236;-80
2022/11/07 08:50:24;;;;;;;6.43;2.53;;;11.80;99.90;;;;;;5021947;28;22559;-81
2022/11/07 08:52:51;;;;;;;5.57;2.90;;;11.80;99.90;;;;;;5018605;28;21012;-79
2022/11/07 08:55:19;;;;;;;9.43;3.70;;;11.80;99.90;;;;;;5035193;28;20234;-80
2022/11/07 08:57:46;;;;;;;6.10;2.60;;;11.80;99.90;;;;;;5024906;28;20673;-80
2022/11/07 09:00:13;;;;;;;5.47;2.47;;;11.80;99.90;;;;;;5045713;28;20284;-80
2022/11/07 09:02:41;;;;;;;6.23;2.67;;;11.80;99.90;;;;;;5034756;28;20236;-80
2022/11/07 09:05:08;;;;;;;5.13;2.33;;;11.80;99.90;;;;;;5037363;28;20231;-80
2022/11/07 09:07:38;;;;;;;9.77;2.60;;;11.70;99.90;;;;;;5039450;28;20261;-80
2022/11/07 09:10:05;;;;;;;8.60;2.73;;;11.80;99.90;;;;;;5042375;28;20635;-79
2022/11/07 09:12:33;;;;;;;10.03;2.87;;;11.80;99.90;;;;;;5042569;28;20238;-79
2022/11/07 09:15:00;;;;;;;7.33;2.37;;;11.80;99.90;;;;;;5020938;28;20225;-80
2022/11/07 09:17:27;;;;;;;9.50;2.53;;;11.80;99.90;;;;;;5023210;28;20847;-79
2022/11/07 09:19:54;;;;;;;8.33;2.77;;;11.90;99.90;;;;;;5044137;28;20332;-80
2022/11/07 09:22:21;;;;;;;7.73;2.80;;;12.00;99.90;;;;;;5022282;28;20628;-80
2022/11/07 09:24:47;;;;;;;6.40;2.87;;;12.00;99.90;;;;;;5037370;28;20230;-81
2022/11/07 09:27:14;;;;;;;5.23;2.37;;;12.10;99.90;;;;;;5041115;28;20222;-81
2022/11/07 09:29:42;;;;;;;4.63;2.37;;;12.30;99.90;;;;;;5024987;28;20918;-80
2022/11/07 09:32:09;;;;;;;6.03;3.20;;;12.50;99.90;;;;;;5015374;28;20276;-81
2022/11/07 09:34:35;;;;;;;8.47;2.83;;;12.60;99.90;;;;;;5030480;28;20300;-81
2022/11/07 09:37:02;;;;;;;7.93;2.83;;;12.80;99.90;;;;;;5020948;28;20220;-80
2022/11/07 09:39:29;;;;;;;6.43;2.63;;;12.90;99.90;;;;;;5018837;28;20233;-79
2022/11/07 09:42:03;;;;;;;7.37;2.30;;;13.00;99.90;;;;;;5036071;28;20243;-80
2022/11/07 09:44:55;;;;;;;7.00;2.40;;;13.10;99.90;;;;;;5033391;28;20230;-81
2022/11/07 09:47:27;;;;;;;7.00;2.33;;;13.20;99.90;;;;;;5033623;28;20286;-81
2022/11/07 09:49:59;;;;;;;5.37;2.30;;;13.30;99.90;;;;;;5017429;28;20245;-80
2022/11/07 09:52:37;;;;;;;8.63;2.77;;;13.40;99.90;;;;;;5036598;28;20236;-80
2022/11/07 09:55:13;;;;;;;6.60;1.93;;;13.50;99.90;;;;;;5020364;28;20225;-79
2022/11/07 09:57:40;;;;;;;5.70;2.10;;;13.60;99.90;;;;;;5046049;28;20234;-80
2022/11/07 10:00:14;;;;;;;4.87;1.87;;;13.90;99.90;;;;;;5039137;28;20237;-78
2022/11/07 10:02:44;;;;;;;6.43;2.43;;;14.10;99.90;;;;;;5023680;28;20277;-81
2022/11/07 10:05:15;;;;;;;8.83;2.00;;;14.30;99.90;;;;;;5014504;28;20229;-81
2022/11/07 10:07:51;;;;;;;6.63;2.10;;;14.40;99.90;;;;;;5019459;28;20695;-80
2022/11/07 10:10:25;;;;;;;5.77;2.10;;;14.40;99.90;;;;;;5032715;28;20654;-81
2022/11/07 10:13:07;;;;;;;5.83;2.00;;;14.40;99.90;;;;;;5038087;28;20280;-79
2022/11/07 10:15:49;;;;;;;6.57;2.33;;;14.40;99.90;;;;;;5024647;28;20226;-80
2022/11/07 10:18:32;;;;;;;9.47;2.67;;;14.30;99.90;;;;;;5016678;28;20329;-81
2022/11/07 10:21:07;;;;;;;7.20;2.57;;;14.20;99.90;;;;;;5018931;28;20218;-81
2022/11/07 10:23:47;;;;;;;7.50;2.17;;;14.20;99.90;;;;;;5036714;28;20220;-79
2022/11/07 10:26:19;;;;;;;9.13;2.47;;;14.10;99.90;;;;;;5038325;28;20224;-80
2022/11/07 10:28:53;;;;;;;7.30;2.07;;;14.10;99.90;;;;;;5021675;28;20325;-80
2022/11/07 10:31:22;;;;;;;7.63;2.93;;;14.10;99.90;;;;;;5040158;28;20238;-79
2022/11/07 10:33:52;;;;;;;12.93;2.87;;;14.10;99.90;;;;;;5024176;28;20261;-81
2022/11/07 10:36:24;;;;;;;9.30;2.60;;;14.20;99.90;;;;;;5022885;28;20612;-79
2022/11/07 10:38:52;;;;;;;8.13;2.60;;;14.20;99.90;;;;;;5040472;28;20222;-79
2022/11/07 10:41:22;;;;;;;8.27;2.83;;;14.10;99.90;;;;;;5027249;28;20333;-79
2022/11/07 10:43:52;;;;;;;8.03;2.50;;;14.10;99.90;;;;;;5034297;28;20237;-80
2022/11/07 10:46:24;;;;;;;6.90;2.37;;;14.00;99.90;;;;;;5038458;28;20786;-79
2022/11/07 10:48:52;;;;;;;15.33;3.03;;;14.00;99.90;;;;;;5027726;28;20229;-81
2022/11/07 10:51:19;;;;;;;6.70;2.60;;;13.90;99.90;;;;;;5047821;28;20221;-78
2022/11/07 10:53:46;;;;;;;10.97;2.67;;;13.90;99.90;;;;;;5044663;28;20239;-80
2022/11/07 10:56:18;;;;;;;6.23;2.23;;;13.90;99.90;;;;;;5025861;28;20309;-81
2022/11/07 10:58:45;;;;;;;7.80;2.80;;;13.90;99.90;;;;;;5041919;28;20227;-81
2022/11/07 11:01:12;;;;;;;6.57;2.67;;;13.90;99.90;;;;;;5026870;28;20214;-78
2022/11/07 11:03:43;;;;;;;8.53;2.90;;;13.90;99.90;;;;;;5026194;28;20254;-79
2022/11/07 11:06:19;;;;;;;7.40;2.50;;;13.70;99.90;;;;;;5026036;28;20221;-81
2022/11/07 11:08:47;;;;;;;8.00;2.40;;;13.70;99.90;;;;;;5046087;28;20237;-81
2022/11/07 11:11:15;;;;;;;5.13;2.40;;;13.70;99.90;;;;;;5033500;28;20328;-80
2022/11/07 11:13:42;;;;;;;8.00;2.57;;;13.70;99.90;;;;;;5043556;28;20305;-81
2022/11/07 11:16:26;;;;;;;7.17;3.17;;;13.70;99.90;;;;;;5035602;28;20644;-79
2022/11/07 11:18:57;;;;;;;6.57;2.63;;;13.60;99.90;;;;;;5041475;28;20355;-81
2022/11/07 11:21:25;;;;;;;9.00;2.80;;;13.70;99.90;;;;;;5040485;28;20251;-79
2022/11/07 11:23:55;;;;;;;8.10;2.50;;;13.70;99.90;;;;;;5025890;28;20223;-80
2022/11/07 11:26:29;;;;;;;8.17;2.87;;;13.70;99.90;;;;;;5039470;28;20272;-81
2022/11/07 11:29:01;;;;;;;4.83;2.33;;;13.70;99.90;;;;;;5047251;28;20250;-81
2022/11/07 11:31:32;;;;;;;8.27;3.80;;;13.70;99.90;;;;;;5042913;28;20245;-80
2022/11/07 11:34:08;;;;;;;5.00;2.60;;;13.60;99.90;;;;;;5042445;28;20246;-81
2022/11/07 11:36:38;;;;;;;6.27;2.27;;;13.60;99.90;;;;;;5027992;28;20240;-80
2022/11/07 11:39:25;;;;;;;8.53;2.40;;;13.60;99.90;;;;;;5030100;28;20230;-81
2022/11/07 11:41:55;;;;;;;10.73;2.90;;;13.60;99.90;;;;;;5038301;28;20242;-81
2022/11/07 11:44:27;;;;;;;7.50;2.90;;;13.60;99.90;;;;;;5037785;28;20226;-80
2022/11/07 11:47:00;;;;;;;8.90;2.90;;;13.60;99.90;;;;;;5026245;28;20225;-78
2022/11/07 11:49:35;;;;;;;7.20;2.90;;;13.60;99.90;;;;;;5041371;28;20241;-80
2022/11/07 11:52:10;;;;;;;10.37;3.87;;;13.60;99.90;;;;;;5042077;28;20690;-81
2022/11/07 11:54:37;;;;;;;8.50;2.80;;;13.60;99.90;;;;;;5028839;28;20478;-80
2022/11/07 11:57:08;;;;;;;9.73;3.60;;;13.50;99.90;;;;;;5023414;28;20241;-80
2022/11/07 12:00:11;;;;;;;8.40;3.03;;;13.50;99.90;;;;;;5032686;28;20248;-80
2022/11/07 12:03:05;;;;;;;6.73;3.13;;;13.40;99.90;;;;;;5030264;28;20336;-81
2022/11/07 12:06:15;;;;;;;7.53;2.70;;;13.40;99.90;;;;;;5024353;28;20238;-81
2022/11/07 12:09:02;;;;;;;10.53;2.83;;;13.40;99.90;;;;;;5022354;28;20227;-80
2022/11/07 12:11:38;;;;;;;7.80;2.87;;;13.40;99.90;;;;;;5038786;28;20252;-81
2022/11/07 12:14:25;;;;;;;7.27;3.00;;;13.30;99.90;;;;;;5038690;28;20217;-80
2022/11/07 12:16:58;;;;;;;7.83;2.97;;;13.30;99.90;;;;;;5033511;28;20232;-79
2022/11/07 12:19:31;;;;;;;6.90;2.83;;;13.30;99.90;;;;;;5026947;28;20724;-80
2022/11/07 12:22:06;;;;;;;6.97;2.67;;;13.40;99.90;;;;;;5037295;28;20318;-79
2022/11/07 12:24:39;;;;;;;7.93;3.10;;;13.40;99.90;;;;;;5035840;28;20299;-80
2022/11/07 12:27:16;;;;;;;6.77;3.50;;;13.40;99.90;;;;;;5046937;28;20278;-80
2022/11/07 12:29:59;;;;;;;7.53;2.77;;;13.40;99.90;;;;;;5036967;28;20782;-79
2022/11/07 12:32:38;;;;;;;6.30;2.70;;;13.50;99.90;;;;;;5041167;28;20698;-80
2022/11/07 12:35:26;;;;;;;10.33;2.63;;;13.40;99.90;;;;;;5037858;28;20223;-81
2022/11/07 12:38:10;;;;;;;8.53;2.87;;;13.40;99.90;;;;;;5047755;28;20771;-80
2022/11/07 12:40:47;;;;;;;5.93;2.60;;;13.40;99.90;;;;;;5040759;28;20262;-80
2022/11/07 12:43:29;;;;;;;7.23;2.60;;;13.40;99.90;;;;;;5036239;28;20323;-80
2022/11/07 12:46:04;;;;;;;7.43;2.73;;;13.30;99.90;;;;;;5048635;28;20253;-82
2022/11/07 12:49:04;;;;;;;8.10;2.90;;;13.30;99.90;;;;;;5027436;28;20419;-79
2022/11/07 12:51:43;;;;;;;4.83;2.70;;;13.30;99.90;;;;;;5019504;28;20320;-77
2022/11/07 12:54:34;;;;;;;6.10;2.63;;;13.30;99.90;;;;;;5037753;28;20248;-78
2022/11/07 12:57:04;;;;;;;6.10;2.67;;;13.30;99.90;;;;;;5023163;28;20225;-81
2022/11/07 12:59:32;;;;;;;8.20;2.90;;;13.30;99.90;;;;;;5030075;28;20301;-81
2022/11/07 13:02:03;;;;;;;8.27;2.40;;;13.30;99.90;;;;;;5020551;28;20694;-81
2022/11/07 13:04:36;;;;;;;5.80;2.20;;;13.20;99.90;;;;;;5021644;28;20234;-79
2022/11/07 13:07:13;;;;;;;5.93;2.70;;;13.20;99.90;;;;;;5021563;28;20225;-79
2022/11/07 13:09:49;;;;;;;7.90;2.73;;;13.20;99.90;;;;;;5023882;28;20256;-81
2022/11/07 13:12:26;;;;;;;6.60;2.60;;;13.20;99.90;;;;;;5041394;28;20215;-80
2022/11/07 13:14:53;;;;;;;8.47;3.03;;;13.20;99.90;;;;;;5040693;28;20245;-81